sensor_id;sensor_type;location;lat;lon;timestamp;temperature;humidity
70706;DHT22;59320;52.316;10.870;2023-04-24T00:00:21;15.10;85.20
70706;DHT22;59320;52.316;10.870;2023-04-24T00:02:49;15.10;85.80
70706;DHT22;59320;52.316;10.870;2023-04-24T00:05:16;15.00;86.20
70706;DHT22;59320;52.316;10.870;2023-04-24T00:07:44;15.00;85.30
70706;DHT22;59320;52.316;10.870;2023-04-24T00:10:12;15.00;85.40
70706;DHT22;59320;52.316;10.870;2023-04-24T00:12:39;15.00;85.70
70706;DHT22;59320;52.316;10.870;2023-04-24T00:15:07;14.90;86.20
70706;DHT22;59320;52.316;10.870;2023-04-24T00:17:37;14.80;86.20
70706;DHT22;59320;52.316;10.870;2023-04-24T00:20:05;14.80;86.30
70706;DHT22;59320;52.316;10.870;2023-04-24T00:22:32;14.80;86.00
70706;DHT22;59320;52.316;10.870;2023-04-24T00:25:00;14.90;85.80
70706;DHT22;59320;52.316;10.870;2023-04-24T00:27:27;14.90;85.70
70706;DHT22;59320;52.316;10.870;2023-04-24T00:29:54;14.80;85.90
70706;DHT22;59320;52.316;10.870;2023-04-24T00:32:21;14.70;86.00
70706;DHT22;59320;52.316;10.870;2023-04-24T00:34:49;14.70;85.90
70706;DHT22;59320;52.316;10.870;2023-04-24T00:37:16;14.80;85.80
70706;DHT22;59320;52.316;10.870;2023-04-24T00:39:44;14.70;86.20
70706;DHT22;59320;52.316;10.870;2023-04-24T00:42:11;14.70;86.30
70706;DHT22;59320;52.316;10.870;2023-04-24T00:44:38;14.60;86.30
70706;DHT22;59320;52.316;10.870;2023-04-24T00:47:07;14.70;86.40
70706;DHT22;59320;52.316;10.870;2023-04-24T00:49:34;14.60;86.80
70706;DHT22;59320;52.316;10.870;2023-04-24T00:52:03;14.50;87.10
70706;DHT22;59320;52.316;10.870;2023-04-24T00:54:33;14.60;87.00
70706;DHT22;59320;52.316;10.870;2023-04-24T00:57:00;14.60;86.70
70706;DHT22;59320;52.316;10.870;2023-04-24T00:59:28;14.60;86.70
70706;DHT22;59320;52.316;10.870;2023-04-24T01:01:55;14.70;86.50
70706;DHT22;59320;52.316;10.870;2023-04-24T01:04:22;14.60;87.50
70706;DHT22;59320;52.316;10.870;2023-04-24T01:06:50;14.60;86.60
70706;DHT22;59320;52.316;10.870;2023-04-24T01:09:19;14.50;87.10
70706;DHT22;59320;52.316;10.870;2023-04-24T01:11:47;14.40;87.40
70706;DHT22;59320;52.316;10.870;2023-04-24T01:14:14;14.30;88.10
70706;DHT22;59320;52.316;10.870;2023-04-24T01:16:41;14.40;88.10
70706;DHT22;59320;52.316;10.870;2023-04-24T01:19:10;14.20;88.60
70706;DHT22;59320;52.316;10.870;2023-04-24T01:21:37;14.30;88.20
70706;DHT22;59320;52.316;10.870;2023-04-24T01:24:07;14.30;88.00
70706;DHT22;59320;52.316;10.870;2023-04-24T01:26:34;14.30;88.60
70706;DHT22;59320;52.316;10.870;2023-04-24T01:29:01;14.30;88.50
70706;DHT22;59320;52.316;10.870;2023-04-24T01:31:28;14.10;89.00
70706;DHT22;59320;52.316;10.870;2023-04-24T01:33:56;14.10;89.50
70706;DHT22;59320;52.316;10.870;2023-04-24T01:36:24;14.10;89.70
70706;DHT22;59320;52.316;10.870;2023-04-24T01:38:53;14.00;90.00
70706;DHT22;59320;52.316;10.870;2023-04-24T01:41:22;14.00;90.00
70706;DHT22;59320;52.316;10.870;2023-04-24T01:43:51;14.10;90.00
70706;DHT22;59320;52.316;10.870;2023-04-24T01:46:19;14.10;90.00
70706;DHT22;59320;52.316;10.870;2023-04-24T01:48:46;14.00;90.20
70706;DHT22;59320;52.316;10.870;2023-04-24T01:51:14;13.90;90.20
70706;DHT22;59320;52.316;10.870;2023-04-24T01:53:41;13.90;90.20
70706;DHT22;59320;52.316;10.870;2023-04-24T01:56:09;14.00;90.20
70706;DHT22;59320;52.316;10.870;2023-04-24T01:58:37;13.90;90.30
70706;DHT22;59320;52.316;10.870;2023-04-24T02:01:06;14.00;90.20
70706;DHT22;59320;52.316;10.870;2023-04-24T02:03:33;14.00;90.00
70706;DHT22;59320;52.316;10.870;2023-04-24T02:06:00;13.90;90.20
70706;DHT22;59320;52.316;10.870;2023-04-24T02:08:27;13.90;90.30
70706;DHT22;59320;52.316;10.870;2023-04-24T02:10:54;13.80;90.50
70706;DHT22;59320;52.316;10.870;2023-04-24T02:13:21;13.70;90.60
70706;DHT22;59320;52.316;10.870;2023-04-24T02:15:50;13.60;91.00
70706;DHT22;59320;52.316;10.870;2023-04-24T02:18:17;13.60;91.10
70706;DHT22;59320;52.316;10.870;2023-04-24T02:20:44;13.60;91.20
70706;DHT22;59320;52.316;10.870;2023-04-24T02:23:11;13.60;91.00
70706;DHT22;59320;52.316;10.870;2023-04-24T02:25:39;13.60;91.00
70706;DHT22;59320;52.316;10.870;2023-04-24T02:28:06;13.60;91.20
70706;DHT22;59320;52.316;10.870;2023-04-24T02:30:33;13.60;91.10
70706;DHT22;59320;52.316;10.870;2023-04-24T02:33:03;13.50;91.30
70706;DHT22;59320;52.316;10.870;2023-04-24T02:35:30;13.50;91.20
70706;DHT22;59320;52.316;10.870;2023-04-24T02:37:57;13.50;91.20
70706;DHT22;59320;52.316;10.870;2023-04-24T02:40:24;13.60;91.00
70706;DHT22;59320;52.316;10.870;2023-04-24T02:42:51;13.50;91.50
70706;DHT22;59320;52.316;10.870;2023-04-24T02:45:18;13.60;91.10
70706;DHT22;59320;52.316;10.870;2023-04-24T02:47:45;13.50;91.10
70706;DHT22;59320;52.316;10.870;2023-04-24T02:50:14;13.50;91.20
70706;DHT22;59320;52.316;10.870;2023-04-24T02:52:41;13.50;91.10
70706;DHT22;59320;52.316;10.870;2023-04-24T02:55:08;13.50;91.20
70706;DHT22;59320;52.316;10.870;2023-04-24T02:57:35;13.50;91.20
70706;DHT22;59320;52.316;10.870;2023-04-24T03:00:04;13.40;91.30
70706;DHT22;59320;52.316;10.870;2023-04-24T03:02:33;13.40;91.50
70706;DHT22;59320;52.316;10.870;2023-04-24T03:05:00;13.30;91.70
70706;DHT22;59320;52.316;10.870;2023-04-24T03:07:30;13.30;91.70
70706;DHT22;59320;52.316;10.870;2023-04-24T03:09:59;13.30;91.70
70706;DHT22;59320;52.316;10.870;2023-04-24T03:12:26;13.20;91.60
70706;DHT22;59320;52.316;10.870;2023-04-24T03:14:53;13.20;91.60
70706;DHT22;59320;52.316;10.870;2023-04-24T03:17:20;13.30;91.40
70706;DHT22;59320;52.316;10.870;2023-04-24T03:19:47;13.30;91.40
70706;DHT22;59320;52.316;10.870;2023-04-24T03:22:15;13.30;91.70
70706;DHT22;59320;52.316;10.870;2023-04-24T03:24:44;13.20;91.70
70706;DHT22;59320;52.316;10.870;2023-04-24T03:27:14;13.10;91.50
70706;DHT22;59320;52.316;10.870;2023-04-24T03:29:49;13.20;91.50
70706;DHT22;59320;52.316;10.870;2023-04-24T03:32:20;13.20;91.50
70706;DHT22;59320;52.316;10.870;2023-04-24T03:34:47;13.10;91.40
70706;DHT22;59320;52.316;10.870;2023-04-24T03:37:14;13.10;91.50
70706;DHT22;59320;52.316;10.870;2023-04-24T03:39:48;13.10;91.30
70706;DHT22;59320;52.316;10.870;2023-04-24T03:42:19;13.00;91.20
70706;DHT22;59320;52.316;10.870;2023-04-24T03:44:51;13.00;91.30
70706;DHT22;59320;52.316;10.870;2023-04-24T03:47:22;13.00;91.30
70706;DHT22;59320;52.316;10.870;2023-04-24T03:49:50;13.00;91.20
70706;DHT22;59320;52.316;10.870;2023-04-24T03:52:17;13.00;91.00
70706;DHT22;59320;52.316;10.870;2023-04-24T03:54:45;13.00;90.90
70706;DHT22;59320;52.316;10.870;2023-04-24T03:57:13;12.90;90.90
70706;DHT22;59320;52.316;10.870;2023-04-24T03:59:50;12.90;90.90
70706;DHT22;59320;52.316;10.870;2023-04-24T04:02:20;12.90;90.80
70706;DHT22;59320;52.316;10.870;2023-04-24T04:04:47;12.90;90.70
70706;DHT22;59320;52.316;10.870;2023-04-24T04:07:14;12.90;90.50
70706;DHT22;59320;52.316;10.870;2023-04-24T04:09:41;12.90;90.30
70706;DHT22;59320;52.316;10.870;2023-04-24T04:12:08;13.00;90.20
70706;DHT22;59320;52.316;10.870;2023-04-24T04:14:40;12.90;90.30
70706;DHT22;59320;52.316;10.870;2023-04-24T04:17:07;12.90;90.40
70706;DHT22;59320;52.316;10.870;2023-04-24T04:19:35;12.90;90.30
70706;DHT22;59320;52.316;10.870;2023-04-24T04:22:03;13.00;90.20
70706;DHT22;59320;52.316;10.870;2023-04-24T04:24:38;13.00;90.10
70706;DHT22;59320;52.316;10.870;2023-04-24T04:27:07;13.00;90.10
70706;DHT22;59320;52.316;10.870;2023-04-24T04:29:44;13.00;90.00
70706;DHT22;59320;52.316;10.870;2023-04-24T04:32:13;13.00;90.00
70706;DHT22;59320;52.316;10.870;2023-04-24T04:34:41;13.00;90.00
70706;DHT22;59320;52.316;10.870;2023-04-24T04:37:10;13.10;90.00
70706;DHT22;59320;52.316;10.870;2023-04-24T04:39:52;13.10;89.70
70706;DHT22;59320;52.316;10.870;2023-04-24T04:42:23;13.20;89.60
70706;DHT22;59320;52.316;10.870;2023-04-24T04:44:51;13.20;89.50
70706;DHT22;59320;52.316;10.870;2023-04-24T04:47:24;13.20;89.80
70706;DHT22;59320;52.316;10.870;2023-04-24T04:49:54;13.30;89.70
70706;DHT22;59320;52.316;10.870;2023-04-24T04:52:25;13.30;89.00
70706;DHT22;59320;52.316;10.870;2023-04-24T04:54:59;13.30;89.20
70706;DHT22;59320;52.316;10.870;2023-04-24T04:57:43;13.40;89.30
70706;DHT22;59320;52.316;10.870;2023-04-24T05:00:13;13.30;89.50
70706;DHT22;59320;52.316;10.870;2023-04-24T05:02:47;13.30;89.50
70706;DHT22;59320;52.316;10.870;2023-04-24T05:05:14;13.30;89.40
70706;DHT22;59320;52.316;10.870;2023-04-24T05:07:43;13.30;89.70
70706;DHT22;59320;52.316;10.870;2023-04-24T05:10:10;13.20;89.80
70706;DHT22;59320;52.316;10.870;2023-04-24T05:12:38;13.30;89.90
70706;DHT22;59320;52.316;10.870;2023-04-24T05:15:07;13.20;90.00
70706;DHT22;59320;52.316;10.870;2023-04-24T05:17:35;13.20;90.10
70706;DHT22;59320;52.316;10.870;2023-04-24T05:20:04;13.20;90.30
70706;DHT22;59320;52.316;10.870;2023-04-24T05:22:32;13.20;90.30
70706;DHT22;59320;52.316;10.870;2023-04-24T05:24:59;13.20;90.40
70706;DHT22;59320;52.316;10.870;2023-04-24T05:27:44;13.10;90.50
70706;DHT22;59320;52.316;10.870;2023-04-24T05:30:14;13.20;90.50
70706;DHT22;59320;52.316;10.870;2023-04-24T05:32:43;13.20;90.60
70706;DHT22;59320;52.316;10.870;2023-04-24T05:35:10;13.20;90.70
70706;DHT22;59320;52.316;10.870;2023-04-24T05:37:37;13.20;90.60
70706;DHT22;59320;52.316;10.870;2023-04-24T05:40:06;13.30;90.90
70706;DHT22;59320;52.316;10.870;2023-04-24T05:42:33;13.30;90.50
70706;DHT22;59320;52.316;10.870;2023-04-24T05:45:04;13.30;90.50
70706;DHT22;59320;52.316;10.870;2023-04-24T05:47:37;13.30;90.70
70706;DHT22;59320;52.316;10.870;2023-04-24T05:50:07;13.30;90.70
70706;DHT22;59320;52.316;10.870;2023-04-24T05:52:34;13.40;90.50
70706;DHT22;59320;52.316;10.870;2023-04-24T05:55:05;13.50;90.40
70706;DHT22;59320;52.316;10.870;2023-04-24T05:57:36;13.50;90.20
70706;DHT22;59320;52.316;10.870;2023-04-24T06:00:05;13.60;90.20
70706;DHT22;59320;52.316;10.870;2023-04-24T06:02:44;13.60;89.90
70706;DHT22;59320;52.316;10.870;2023-04-24T06:05:14;13.70;89.80
70706;DHT22;59320;52.316;10.870;2023-04-24T06:07:41;13.70;89.80
70706;DHT22;59320;52.316;10.870;2023-04-24T06:10:09;13.70;89.70
70706;DHT22;59320;52.316;10.870;2023-04-24T06:12:41;13.70;90.00
70706;DHT22;59320;52.316;10.870;2023-04-24T06:15:15;13.70;90.00
70706;DHT22;59320;52.316;10.870;2023-04-24T06:18:02;13.70;90.10
70706;DHT22;59320;52.316;10.870;2023-04-24T06:20:30;13.80;90.10
70706;DHT22;59320;52.316;10.870;2023-04-24T06:22:57;13.80;90.00
70706;DHT22;59320;52.316;10.870;2023-04-24T06:25:25;13.90;90.00
70706;DHT22;59320;52.316;10.870;2023-04-24T06:27:53;14.00;90.00
70706;DHT22;59320;52.316;10.870;2023-04-24T06:30:20;14.10;90.10
70706;DHT22;59320;52.316;10.870;2023-04-24T06:32:47;14.20;89.70
70706;DHT22;59320;52.316;10.870;2023-04-24T06:35:15;14.30;89.40
70706;DHT22;59320;52.316;10.870;2023-04-24T06:37:43;14.40;89.00
70706;DHT22;59320;52.316;10.870;2023-04-24T06:40:10;14.50;88.80
70706;DHT22;59320;52.316;10.870;2023-04-24T06:42:37;14.70;88.50
70706;DHT22;59320;52.316;10.870;2023-04-24T06:45:08;14.80;88.40
70706;DHT22;59320;52.316;10.870;2023-04-24T06:47:35;14.80;87.60
70706;DHT22;59320;52.316;10.870;2023-04-24T06:50:04;14.70;87.40
70706;DHT22;59320;52.316;10.870;2023-04-24T06:52:31;14.80;87.30
70706;DHT22;59320;52.316;10.870;2023-04-24T06:55:01;14.80;87.20
70706;DHT22;59320;52.316;10.870;2023-04-24T06:57:29;14.80;87.00
70706;DHT22;59320;52.316;10.870;2023-04-24T06:59:56;14.80;86.80
70706;DHT22;59320;52.316;10.870;2023-04-24T07:02:24;14.80;86.90
70706;DHT22;59320;52.316;10.870;2023-04-24T07:04:51;14.80;86.80
70706;DHT22;59320;52.316;10.870;2023-04-24T07:07:18;14.80;87.50
70706;DHT22;59320;52.316;10.870;2023-04-24T07:09:45;14.80;87.30
70706;DHT22;59320;52.316;10.870;2023-04-24T07:12:14;14.80;87.20
70706;DHT22;59320;52.316;10.870;2023-04-24T07:14:42;14.80;88.20
70706;DHT22;59320;52.316;10.870;2023-04-24T07:17:09;14.80;88.20
70706;DHT22;59320;52.316;10.870;2023-04-24T07:19:44;14.70;87.40
70706;DHT22;59320;52.316;10.870;2023-04-24T07:22:11;14.80;87.60
70706;DHT22;59320;52.316;10.870;2023-04-24T07:24:42;14.90;87.30
70706;DHT22;59320;52.316;10.870;2023-04-24T07:27:09;14.90;87.10
70706;DHT22;59320;52.316;10.870;2023-04-24T07:29:38;14.90;87.70
70706;DHT22;59320;52.316;10.870;2023-04-24T07:32:06;15.00;87.30
70706;DHT22;59320;52.316;10.870;2023-04-24T07:34:34;15.10;87.20
70706;DHT22;59320;52.316;10.870;2023-04-24T07:37:03;15.40;86.80
70706;DHT22;59320;52.316;10.870;2023-04-24T07:39:30;15.60;86.30
70706;DHT22;59320;52.316;10.870;2023-04-24T07:41:57;15.80;85.40
70706;DHT22;59320;52.316;10.870;2023-04-24T07:44:26;15.90;84.80
70706;DHT22;59320;52.316;10.870;2023-04-24T07:46:55;15.90;84.70
70706;DHT22;59320;52.316;10.870;2023-04-24T07:49:23;16.10;84.10
70706;DHT22;59320;52.316;10.870;2023-04-24T07:51:50;16.20;84.20
70706;DHT22;59320;52.316;10.870;2023-04-24T07:54:17;16.20;83.40
70706;DHT22;59320;52.316;10.870;2023-04-24T07:56:44;16.10;83.30
70706;DHT22;59320;52.316;10.870;2023-04-24T07:59:11;16.20;83.10
70706;DHT22;59320;52.316;10.870;2023-04-24T08:01:38;16.20;83.10
70706;DHT22;59320;52.316;10.870;2023-04-24T08:04:07;16.20;82.70
70706;DHT22;59320;52.316;10.870;2023-04-24T08:06:34;16.00;83.30
70706;DHT22;59320;52.316;10.870;2023-04-24T08:09:01;15.90;83.90
70706;DHT22;59320;52.316;10.870;2023-04-24T08:11:29;15.70;85.00
70706;DHT22;59320;52.316;10.870;2023-04-24T08:13:56;15.30;83.10
70706;DHT22;59320;52.316;10.870;2023-04-24T08:16:23;14.60;85.50
70706;DHT22;59320;52.316;10.870;2023-04-24T08:18:50;14.30;87.30
70706;DHT22;59320;52.316;10.870;2023-04-24T08:21:19;14.00;87.50
70706;DHT22;59320;52.316;10.870;2023-04-24T08:23:47;13.90;86.60
70706;DHT22;59320;52.316;10.870;2023-04-24T08:26:14;14.00;86.90
70706;DHT22;59320;52.316;10.870;2023-04-24T08:28:42;14.10;85.60
70706;DHT22;59320;52.316;10.870;2023-04-24T08:31:09;14.20;86.00
70706;DHT22;59320;52.316;10.870;2023-04-24T08:33:36;14.20;86.70
70706;DHT22;59320;52.316;10.870;2023-04-24T08:36:05;14.30;84.60
70706;DHT22;59320;52.316;10.870;2023-04-24T08:38:33;14.20;83.70
70706;DHT22;59320;52.316;10.870;2023-04-24T08:41:01;14.20;83.80
70706;DHT22;59320;52.316;10.870;2023-04-24T08:43:29;14.20;84.00
70706;DHT22;59320;52.316;10.870;2023-04-24T08:45:57;14.10;83.30
70706;DHT22;59320;52.316;10.870;2023-04-24T08:48:25;14.20;84.40
70706;DHT22;59320;52.316;10.870;2023-04-24T08:50:53;14.40;83.70
70706;DHT22;59320;52.316;10.870;2023-04-24T08:53:20;14.60;83.60
70706;DHT22;59320;52.316;10.870;2023-04-24T08:55:49;14.70;84.10
70706;DHT22;59320;52.316;10.870;2023-04-24T08:58:17;15.00;83.40
70706;DHT22;59320;52.316;10.870;2023-04-24T09:00:44;15.00;83.80
70706;DHT22;59320;52.316;10.870;2023-04-24T09:03:13;15.10;83.60
70706;DHT22;59320;52.316;10.870;2023-04-24T09:05:42;15.20;83.00
70706;DHT22;59320;52.316;10.870;2023-04-24T09:08:13;15.10;82.00
70706;DHT22;59320;52.316;10.870;2023-04-24T09:10:40;15.20;82.10
70706;DHT22;59320;52.316;10.870;2023-04-24T09:13:09;15.30;82.10
70706;DHT22;59320;52.316;10.870;2023-04-24T09:15:37;15.30;80.90
70706;DHT22;59320;52.316;10.870;2023-04-24T09:18:04;15.40;81.40
70706;DHT22;59320;52.316;10.870;2023-04-24T09:20:32;15.60;80.90
70706;DHT22;59320;52.316;10.870;2023-04-24T09:23:01;15.90;80.90
70706;DHT22;59320;52.316;10.870;2023-04-24T09:25:31;16.10;78.50
70706;DHT22;59320;52.316;10.870;2023-04-24T09:28:00;16.30;75.40
70706;DHT22;59320;52.316;10.870;2023-04-24T09:30:29;16.20;74.70
70706;DHT22;59320;52.316;10.870;2023-04-24T09:33:10;16.10;75.20
70706;DHT22;59320;52.316;10.870;2023-04-24T09:35:41;16.20;73.30
70706;DHT22;59320;52.316;10.870;2023-04-24T09:38:09;16.30;71.70
70706;DHT22;59320;52.316;10.870;2023-04-24T09:40:36;16.20;72.50
70706;DHT22;59320;52.316;10.870;2023-04-24T09:43:03;16.30;71.70
70706;DHT22;59320;52.316;10.870;2023-04-24T09:45:37;16.40;71.90
70706;DHT22;59320;52.316;10.870;2023-04-24T09:48:05;16.70;69.30
70706;DHT22;59320;52.316;10.870;2023-04-24T09:50:33;16.80;69.40
70706;DHT22;59320;52.316;10.870;2023-04-24T09:53:03;16.80;68.30
70706;DHT22;59320;52.316;10.870;2023-04-24T09:55:30;16.90;69.20
70706;DHT22;59320;52.316;10.870;2023-04-24T09:57:58;16.90;67.60
70706;DHT22;59320;52.316;10.870;2023-04-24T10:00:27;17.00;68.40
70706;DHT22;59320;52.316;10.870;2023-04-24T10:02:56;17.10;65.20
70706;DHT22;59320;52.316;10.870;2023-04-24T10:05:26;17.20;65.00
70706;DHT22;59320;52.316;10.870;2023-04-24T10:07:57;17.40;64.60
70706;DHT22;59320;52.316;10.870;2023-04-24T10:10:24;17.80;64.20
70706;DHT22;59320;52.316;10.870;2023-04-24T10:12:52;18.20;64.00
70706;DHT22;59320;52.316;10.870;2023-04-24T10:15:20;18.10;61.00
70706;DHT22;59320;52.316;10.870;2023-04-24T10:17:48;17.80;62.40
70706;DHT22;59320;52.316;10.870;2023-04-24T10:20:21;17.60;62.00
70706;DHT22;59320;52.316;10.870;2023-04-24T10:22:49;17.40;62.30
70706;DHT22;59320;52.316;10.870;2023-04-24T10:25:20;17.30;62.10
70706;DHT22;59320;52.316;10.870;2023-04-24T10:27:49;17.40;62.00
70706;DHT22;59320;52.316;10.870;2023-04-24T10:30:18;17.30;61.90
70706;DHT22;59320;52.316;10.870;2023-04-24T10:32:45;17.40;62.10
70706;DHT22;59320;52.316;10.870;2023-04-24T10:35:14;17.70;62.60
70706;DHT22;59320;52.316;10.870;2023-04-24T10:37:45;17.80;61.70
70706;DHT22;59320;52.316;10.870;2023-04-24T10:40:18;17.70;61.10
70706;DHT22;59320;52.316;10.870;2023-04-24T10:42:47;17.60;62.60
70706;DHT22;59320;52.316;10.870;2023-04-24T10:45:18;17.70;59.80
70706;DHT22;59320;52.316;10.870;2023-04-24T10:47:57;17.40;62.10
70706;DHT22;59320;52.316;10.870;2023-04-24T10:50:29;17.40;62.80
70706;DHT22;59320;52.316;10.870;2023-04-24T10:53:07;17.50;61.80
70706;DHT22;59320;52.316;10.870;2023-04-24T10:55:43;17.70;61.40
70706;DHT22;59320;52.316;10.870;2023-04-24T10:58:11;17.60;59.70
70706;DHT22;59320;52.316;10.870;2023-04-24T11:00:39;17.20;59.10
70706;DHT22;59320;52.316;10.870;2023-04-24T11:03:08;17.10;59.10
70706;DHT22;59320;52.316;10.870;2023-04-24T11:05:53;16.80;60.30
70706;DHT22;59320;52.316;10.870;2023-04-24T11:08:25;17.10;62.40
70706;DHT22;59320;52.316;10.870;2023-04-24T11:10:58;17.30;60.10
70706;DHT22;59320;52.316;10.870;2023-04-24T11:13:26;17.20;59.20
70706;DHT22;59320;52.316;10.870;2023-04-24T11:16:13;17.10;60.70
70706;DHT22;59320;52.316;10.870;2023-04-24T11:18:42;17.00;59.60
70706;DHT22;59320;52.316;10.870;2023-04-24T11:21:12;16.90;59.40
70706;DHT22;59320;52.316;10.870;2023-04-24T11:23:40;17.10;60.90
70706;DHT22;59320;52.316;10.870;2023-04-24T11:26:11;17.20;61.10
70706;DHT22;59320;52.316;10.870;2023-04-24T11:28:47;17.20;59.30
70706;DHT22;59320;52.316;10.870;2023-04-24T11:31:34;17.00;59.30
70706;DHT22;59320;52.316;10.870;2023-04-24T11:34:10;17.00;58.60
70706;DHT22;59320;52.316;10.870;2023-04-24T11:36:38;17.10;59.60
70706;DHT22;59320;52.316;10.870;2023-04-24T11:39:07;17.10;58.90
70706;DHT22;59320;52.316;10.870;2023-04-24T11:41:36;17.20;59.40
70706;DHT22;59320;52.316;10.870;2023-04-24T11:44:05;17.20;58.30
70706;DHT22;59320;52.316;10.870;2023-04-24T11:46:32;17.10;58.50
70706;DHT22;59320;52.316;10.870;2023-04-24T11:48:59;17.10;59.30
70706;DHT22;59320;52.316;10.870;2023-04-24T11:51:27;17.20;60.40
70706;DHT22;59320;52.316;10.870;2023-04-24T11:53:54;17.20;58.30
70706;DHT22;59320;52.316;10.870;2023-04-24T11:56:23;17.30;58.40
70706;DHT22;59320;52.316;10.870;2023-04-24T11:58:52;17.10;58.50
70706;DHT22;59320;52.316;10.870;2023-04-24T12:01:20;16.80;57.10
70706;DHT22;59320;52.316;10.870;2023-04-24T12:03:48;16.70;58.70
70706;DHT22;59320;52.316;10.870;2023-04-24T12:06:17;16.60;58.40
70706;DHT22;59320;52.316;10.870;2023-04-24T12:08:48;16.70;58.70
70706;DHT22;59320;52.316;10.870;2023-04-24T12:11:16;16.90;58.10
70706;DHT22;59320;52.316;10.870;2023-04-24T12:13:46;16.90;57.60
70706;DHT22;59320;52.316;10.870;2023-04-24T12:16:13;17.00;57.90
70706;DHT22;59320;52.316;10.870;2023-04-24T12:18:44;17.10;57.40
70706;DHT22;59320;52.316;10.870;2023-04-24T12:21:15;17.00;58.40
70706;DHT22;59320;52.316;10.870;2023-04-24T12:23:43;16.80;57.60
70706;DHT22;59320;52.316;10.870;2023-04-24T12:26:11;16.40;58.70
70706;DHT22;59320;52.316;10.870;2023-04-24T12:28:39;16.20;59.50
70706;DHT22;59320;52.316;10.870;2023-04-24T12:31:07;16.30;59.80
70706;DHT22;59320;52.316;10.870;2023-04-24T12:33:35;16.30;59.60
70706;DHT22;59320;52.316;10.870;2023-04-24T12:36:02;16.40;60.00
70706;DHT22;59320;52.316;10.870;2023-04-24T12:38:31;16.70;60.40
70706;DHT22;59320;52.316;10.870;2023-04-24T12:41:06;16.90;60.70
70706;DHT22;59320;52.316;10.870;2023-04-24T12:43:34;16.90;61.50
70706;DHT22;59320;52.316;10.870;2023-04-24T12:46:01;16.90;60.60
70706;DHT22;59320;52.316;10.870;2023-04-24T12:48:31;16.80;59.90
70706;DHT22;59320;52.316;10.870;2023-04-24T12:50:58;16.80;59.60
70706;DHT22;59320;52.316;10.870;2023-04-24T12:53:28;16.70;59.90
70706;DHT22;59320;52.316;10.870;2023-04-24T12:55:57;16.50;59.60
70706;DHT22;59320;52.316;10.870;2023-04-24T12:58:24;16.40;60.20
70706;DHT22;59320;52.316;10.870;2023-04-24T13:00:51;16.50;59.60
70706;DHT22;59320;52.316;10.870;2023-04-24T13:03:18;16.60;60.40
70706;DHT22;59320;52.316;10.870;2023-04-24T13:05:47;16.70;60.30
70706;DHT22;59320;52.316;10.870;2023-04-24T13:08:14;16.90;59.60
70706;DHT22;59320;52.316;10.870;2023-04-24T13:10:41;16.70;59.90
70706;DHT22;59320;52.316;10.870;2023-04-24T13:13:08;16.60;59.80
70706;DHT22;59320;52.316;10.870;2023-04-24T13:15:35;16.40;61.40
70706;DHT22;59320;52.316;10.870;2023-04-24T13:18:03;16.50;61.40
70706;DHT22;59320;52.316;10.870;2023-04-24T13:20:30;16.40;62.00
70706;DHT22;59320;52.316;10.870;2023-04-24T13:22:58;16.20;62.70
70706;DHT22;59320;52.316;10.870;2023-04-24T13:25:25;15.80;67.40
70706;DHT22;59320;52.316;10.870;2023-04-24T13:27:53;15.60;70.20
70706;DHT22;59320;52.316;10.870;2023-04-24T13:30:20;15.40;70.90
70706;DHT22;59320;52.316;10.870;2023-04-24T13:32:47;15.30;70.20
70706;DHT22;59320;52.316;10.870;2023-04-24T13:35:15;15.10;71.50
70706;DHT22;59320;52.316;10.870;2023-04-24T13:37:42;15.00;70.20
70706;DHT22;59320;52.316;10.870;2023-04-24T13:40:11;15.00;69.10
70706;DHT22;59320;52.316;10.870;2023-04-24T13:42:38;15.10;68.80
70706;DHT22;59320;52.316;10.870;2023-04-24T13:45:06;15.30;69.60
70706;DHT22;59320;52.316;10.870;2023-04-24T13:47:34;15.60;69.90
70706;DHT22;59320;52.316;10.870;2023-04-24T13:50:02;15.80;67.70
70706;DHT22;59320;52.316;10.870;2023-04-24T13:52:29;15.80;68.60
70706;DHT22;59320;52.316;10.870;2023-04-24T13:54:56;16.10;67.30
70706;DHT22;59320;52.316;10.870;2023-04-24T13:57:25;16.40;65.90
70706;DHT22;59320;52.316;10.870;2023-04-24T13:59:52;16.30;64.70
70706;DHT22;59320;52.316;10.870;2023-04-24T14:02:19;16.20;63.60
70706;DHT22;59320;52.316;10.870;2023-04-24T14:04:46;15.80;64.90
70706;DHT22;59320;52.316;10.870;2023-04-24T14:07:13;15.50;65.20
70706;DHT22;59320;52.316;10.870;2023-04-24T14:09:41;15.20;66.30
70706;DHT22;59320;52.316;10.870;2023-04-24T14:12:09;14.90;66.70
70706;DHT22;59320;52.316;10.870;2023-04-24T14:14:38;14.60;68.30
70706;DHT22;59320;52.316;10.870;2023-04-24T14:17:05;14.60;69.20
70706;DHT22;59320;52.316;10.870;2023-04-24T14:19:32;14.60;69.50
70706;DHT22;59320;52.316;10.870;2023-04-24T14:22:00;14.70;69.50
70706;DHT22;59320;52.316;10.870;2023-04-24T14:24:27;14.60;68.80
70706;DHT22;59320;52.316;10.870;2023-04-24T14:26:54;14.50;68.80
70706;DHT22;59320;52.316;10.870;2023-04-24T14:29:22;14.50;68.80
70706;DHT22;59320;52.316;10.870;2023-04-24T14:31:51;14.20;69.40
70706;DHT22;59320;52.316;10.870;2023-04-24T14:34:18;14.00;70.80
70706;DHT22;59320;52.316;10.870;2023-04-24T14:36:45;14.10;70.50
70706;DHT22;59320;52.316;10.870;2023-04-24T14:39:12;14.40;69.70
70706;DHT22;59320;52.316;10.870;2023-04-24T14:41:39;14.50;69.90
70706;DHT22;59320;52.316;10.870;2023-04-24T14:44:06;14.30;70.10
70706;DHT22;59320;52.316;10.870;2023-04-24T14:46:33;14.00;71.20
70706;DHT22;59320;52.316;10.870;2023-04-24T14:49:02;13.70;71.90
70706;DHT22;59320;52.316;10.870;2023-04-24T14:51:29;13.40;73.20
70706;DHT22;59320;52.316;10.870;2023-04-24T14:53:56;13.20;74.60
70706;DHT22;59320;52.316;10.870;2023-04-24T14:56:23;13.00;75.00
70706;DHT22;59320;52.316;10.870;2023-04-24T14:58:51;12.90;75.40
70706;DHT22;59320;52.316;10.870;2023-04-24T15:01:18;13.10;76.30
70706;DHT22;59320;52.316;10.870;2023-04-24T15:03:45;13.00;75.70
70706;DHT22;59320;52.316;10.870;2023-04-24T15:06:13;12.90;76.60
70706;DHT22;59320;52.316;10.870;2023-04-24T15:08:41;12.80;76.80
70706;DHT22;59320;52.316;10.870;2023-04-24T15:11:08;12.80;77.20
70706;DHT22;59320;52.316;10.870;2023-04-24T15:13:35;12.50;80.20
70706;DHT22;59320;52.316;10.870;2023-04-24T15:16:02;12.20;85.10
70706;DHT22;59320;52.316;10.870;2023-04-24T15:18:30;11.90;86.50
70706;DHT22;59320;52.316;10.870;2023-04-24T15:20:57;11.70;86.50
70706;DHT22;59320;52.316;10.870;2023-04-24T15:23:25;11.70;84.80